Weather

BOSCOMBE DOWN (EGDM)

METAR

EGDM 262050Z AUTO 07013KT 9999 FEW050/// 21/14 Q1016

TAF

TAF EGDM 130455Z 1306/1324 17015KT 9999 -RA BKN015 TEMPO 1306/1312 17018G28KT 6000 -RADZ BKN010 PROB30 TEMPO 1306/1315 3000 RADZ BKN006 BECMG 1312/1315 BKN008

BRISTOL AIRPORT (EGGD)

METAR

EGGD 262050Z AUTO 05018KT 9999 FEW049/// //////CB 18/18 Q1016

TAF

TAF EGGD 261706Z 2618/2718 04013KT 9999 SCT020 TEMPO 2619/2703 03016G26KT 4000 +SHRA TSRA BKN009 BKN045CB PROB40 TEMPO 2620/2702 1200 +TSGR BKN004 BECMG 2703/2705 6000 TEMPO 2703/2711 BKN006 PROB40 TEMPO 2703/2709 3000 BR SCT001 BKN002 TEMPO 2707/2718 5000 TSRA BKN014 BKN045CB PROB40 TEMPO 2707/2718 VRB15G25KT 2000 +SHRA TSGR BKN009 BECMG 2709/2712 9999

BRIZE NORTON (EGVN)

METAR

EGVN 262050Z 06014KT 9999 FEW040CB SCT300 17/12 Q1018 TEMPO 4000 +SHRA SCT040CB

TAF

TAF EGVN 261929Z 2621/2721 06012KT 9999 FEW040 TEMPO 2621/2721 7000 SHRA PROB30 TEMPO 2621/2706 06015G30KT 2500 TSGS +SHRA SCT010 BKN050CB PROB30 TEMPO 2706/2719 2000 TSGS +SHRA SCT008 SCT020CB

OXFORD (EGTK)

METAR

EGTK 261850Z 04015KT CAVOK 20/16 Q1017

Pressure charts

Click to see pressure charts
(redidrection to MetOffice website)